sensor_id;sensor_type;location;lat;lon;timestamp;temperature;humidity
18268;DHT22;9260;49.998;19.880;2023-01-19T00:05:02;-0.40;1.00
18268;DHT22;9260;49.998;19.880;2023-01-19T00:15:09;-0.50;1.00
18268;DHT22;9260;49.998;19.880;2023-01-19T00:25:13;-0.40;99.90
18268;DHT22;9260;49.998;19.880;2023-01-19T00:35:18;-0.60;1.00
18268;DHT22;9260;49.998;19.880;2023-01-19T00:45:22;-0.30;1.00
18268;DHT22;9260;49.998;19.880;2023-01-19T00:55:28;-0.20;1.00
18268;DHT22;9260;49.998;19.880;2023-01-19T01:05:33;-0.10;1.00
18268;DHT22;9260;49.998;19.880;2023-01-19T01:15:38;0.00;1.00
18268;DHT22;9260;49.998;19.880;2023-01-19T01:25:41;0.20;1.00
18268;DHT22;9260;49.998;19.880;2023-01-19T01:35:47;-0.10;1.00
18268;DHT22;9260;49.998;19.880;2023-01-19T01:45:50;0.20;1.00
18268;DHT22;9260;49.998;19.880;2023-01-19T01:55:57;0.30;1.00
18268;DHT22;9260;49.998;19.880;2023-01-19T02:06:03;0.30;1.00
18268;DHT22;9260;49.998;19.880;2023-01-19T02:16:10;0.10;1.00
18268;DHT22;9260;49.998;19.880;2023-01-19T02:26:19;0.30;1.00
18268;DHT22;9260;49.998;19.880;2023-01-19T02:36:25;0.30;1.00
18268;DHT22;9260;49.998;19.880;2023-01-19T02:46:34;0.20;1.00
18268;DHT22;9260;49.998;19.880;2023-01-19T02:56:43;0.00;1.00
18268;DHT22;9260;49.998;19.880;2023-01-19T03:06:58;0.00;1.00
18268;DHT22;9260;49.998;19.880;2023-01-19T03:17:06;0.10;1.00
18268;DHT22;9260;49.998;19.880;2023-01-19T03:27:15;0.00;1.00
18268;DHT22;9260;49.998;19.880;2023-01-19T03:37:22;0.00;1.00
18268;DHT22;9260;49.998;19.880;2023-01-19T03:47:28;0.10;1.00
18268;DHT22;9260;49.998;19.880;2023-01-19T03:57:31;0.10;1.00
18268;DHT22;9260;49.998;19.880;2023-01-19T04:07:36;0.10;1.00
18268;DHT22;9260;49.998;19.880;2023-01-19T04:17:40;0.20;1.00
18268;DHT22;9260;49.998;19.880;2023-01-19T04:27:45;-0.10;1.00
18268;DHT22;9260;49.998;19.880;2023-01-19T04:37:48;0.30;1.00
18268;DHT22;9260;49.998;19.880;2023-01-19T04:47:53;0.50;1.00
18268;DHT22;9260;49.998;19.880;2023-01-19T04:57:56;0.60;1.00
18268;DHT22;9260;49.998;19.880;2023-01-19T05:08:01;0.40;1.00
18268;DHT22;9260;49.998;19.880;2023-01-19T05:18:05;0.20;1.00
18268;DHT22;9260;49.998;19.880;2023-01-19T05:28:10;0.40;1.00
18268;DHT22;9260;49.998;19.880;2023-01-19T05:38:14;0.50;1.00
18268;DHT22;9260;49.998;19.880;2023-01-19T05:48:23;0.60;1.00
18268;DHT22;9260;49.998;19.880;2023-01-19T05:58:26;0.70;1.00
18268;DHT22;9260;49.998;19.880;2023-01-19T06:08:31;0.60;1.00
18268;DHT22;9260;49.998;19.880;2023-01-19T06:18:35;0.60;1.00
18268;DHT22;9260;49.998;19.880;2023-01-19T06:28:40;0.70;1.00
18268;DHT22;9260;49.998;19.880;2023-01-19T06:38:43;0.90;1.00
18268;DHT22;9260;49.998;19.880;2023-01-19T06:48:48;0.60;1.00
18268;DHT22;9260;49.998;19.880;2023-01-19T06:58:52;0.70;1.00
18268;DHT22;9260;49.998;19.880;2023-01-19T07:08:57;0.50;1.00
18268;DHT22;9260;49.998;19.880;2023-01-19T07:19:01;0.80;1.00
18268;DHT22;9260;49.998;19.880;2023-01-19T07:29:06;0.60;1.00
18268;DHT22;9260;49.998;19.880;2023-01-19T07:39:09;0.60;1.00
18268;DHT22;9260;49.998;19.880;2023-01-19T07:49:14;0.80;1.00
18268;DHT22;9260;49.998;19.880;2023-01-19T07:59:17;0.90;1.00
18268;DHT22;9260;49.998;19.880;2023-01-19T08:09:22;1.00;1.00
18268;DHT22;9260;49.998;19.880;2023-01-19T08:19:26;1.10;1.00
18268;DHT22;9260;49.998;19.880;2023-01-19T08:29:31;1.00;1.00
18268;DHT22;9260;49.998;19.880;2023-01-19T08:39:34;1.00;1.00
18268;DHT22;9260;49.998;19.880;2023-01-19T08:49:39;1.40;1.00
18268;DHT22;9260;49.998;19.880;2023-01-19T08:59:43;1.20;1.00
18268;DHT22;9260;49.998;19.880;2023-01-19T09:09:49;1.00;1.00
18268;DHT22;9260;49.998;19.880;2023-01-19T09:19:53;1.40;1.00
18268;DHT22;9260;49.998;19.880;2023-01-19T09:29:58;1.50;1.00
18268;DHT22;9260;49.998;19.880;2023-01-19T09:40:01;1.40;1.00
18268;DHT22;9260;49.998;19.880;2023-01-19T09:50:15;1.30;1.00
18268;DHT22;9260;49.998;19.880;2023-01-19T10:00:21;1.50;1.00
18268;DHT22;9260;49.998;19.880;2023-01-19T10:10:29;1.50;1.00
18268;DHT22;9260;49.998;19.880;2023-01-19T10:20:36;1.60;1.00
18268;DHT22;9260;49.998;19.880;2023-01-19T10:30:45;1.60;1.00
18268;DHT22;9260;49.998;19.880;2023-01-19T10:40:55;2.00;1.00
18268;DHT22;9260;49.998;19.880;2023-01-19T10:51:03;2.10;1.00
18268;DHT22;9260;49.998;19.880;2023-01-19T11:01:16;1.70;1.00
18268;DHT22;9260;49.998;19.880;2023-01-19T11:11:23;1.80;1.00
18268;DHT22;9260;49.998;19.880;2023-01-19T11:21:29;2.10;99.90
18268;DHT22;9260;49.998;19.880;2023-01-19T11:31:35;2.10;1.00
18268;DHT22;9260;49.998;19.880;2023-01-19T11:41:39;2.90;99.90
18268;DHT22;9260;49.998;19.880;2023-01-19T11:51:49;2.30;1.00
18268;DHT22;9260;49.998;19.880;2023-01-19T12:01:59;2.10;1.00
18268;DHT22;9260;49.998;19.880;2023-01-19T12:12:07;1.80;1.00
18268;DHT22;9260;49.998;19.880;2023-01-19T12:22:15;1.40;1.00
18268;DHT22;9260;49.998;19.880;2023-01-19T12:32:31;1.70;1.00
18268;DHT22;9260;49.998;19.880;2023-01-19T12:42:36;1.50;1.00
18268;DHT22;9260;49.998;19.880;2023-01-19T12:52:50;1.60;1.00
18268;DHT22;9260;49.998;19.880;2023-01-19T13:02:59;1.30;1.00
18268;DHT22;9260;49.998;19.880;2023-01-19T13:13:16;1.30;1.00
18268;DHT22;9260;49.998;19.880;2023-01-19T13:23:23;1.40;1.00
18268;DHT22;9260;49.998;19.880;2023-01-19T13:33:35;1.30;1.00
18268;DHT22;9260;49.998;19.880;2023-01-19T13:43:56;1.30;1.00
18268;DHT22;9260;49.998;19.880;2023-01-19T13:54:03;1.10;1.00
18268;DHT22;9260;49.998;19.880;2023-01-19T14:04:26;0.90;1.00
18268;DHT22;9260;49.998;19.880;2023-01-19T14:14:33;0.90;99.90
18268;DHT22;9260;49.998;19.880;2023-01-19T14:24:36;0.70;1.00
18268;DHT22;9260;49.998;19.880;2023-01-19T14:34:43;0.90;1.00
18268;DHT22;9260;49.998;19.880;2023-01-19T14:44:49;0.70;1.00
18268;DHT22;9260;49.998;19.880;2023-01-19T14:54:56;0.70;1.00
18268;DHT22;9260;49.998;19.880;2023-01-19T15:05:00;0.70;1.00
18268;DHT22;9260;49.998;19.880;2023-01-19T15:15:12;0.50;1.00
18268;DHT22;9260;49.998;19.880;2023-01-19T15:25:21;0.50;1.00
18268;DHT22;9260;49.998;19.880;2023-01-19T15:35:28;0.40;1.00
18268;DHT22;9260;49.998;19.880;2023-01-19T15:45:34;0.50;1.00
18268;DHT22;9260;49.998;19.880;2023-01-19T15:55:40;0.00;1.00
18268;DHT22;9260;49.998;19.880;2023-01-19T16:05:44;0.40;1.00
18268;DHT22;9260;49.998;19.880;2023-01-19T16:15:49;0.30;1.00
18268;DHT22;9260;49.998;19.880;2023-01-19T16:25:57;0.30;1.00
18268;DHT22;9260;49.998;19.880;2023-01-19T16:36:22;0.30;1.00
18268;DHT22;9260;49.998;19.880;2023-01-19T16:46:28;0.10;1.00
18268;DHT22;9260;49.998;19.880;2023-01-19T16:56:36;0.30;1.00
18268;DHT22;9260;49.998;19.880;2023-01-19T17:06:39;0.30;1.00
18268;DHT22;9260;49.998;19.880;2023-01-19T17:16:44;0.00;1.00
18268;DHT22;9260;49.998;19.880;2023-01-19T17:26:48;0.20;1.00
18268;DHT22;9260;49.998;19.880;2023-01-19T17:36:53;-0.10;1.00
18268;DHT22;9260;49.998;19.880;2023-01-19T17:47:03;0.10;1.00
18268;DHT22;9260;49.998;19.880;2023-01-19T17:57:08;-0.10;1.00
18268;DHT22;9260;49.998;19.880;2023-01-19T18:07:12;0.20;1.00
18268;DHT22;9260;49.998;19.880;2023-01-19T18:17:17;0.20;1.00
18268;DHT22;9260;49.998;19.880;2023-01-19T18:27:21;0.20;1.00
18268;DHT22;9260;49.998;19.880;2023-01-19T18:37:26;0.10;1.00
18268;DHT22;9260;49.998;19.880;2023-01-19T18:47:31;0.10;1.00
18268;DHT22;9260;49.998;19.880;2023-01-19T18:57:36;0.10;1.00
18268;DHT22;9260;49.998;19.880;2023-01-19T19:07:40;0.10;1.00
18268;DHT22;9260;49.998;19.880;2023-01-19T19:17:45;-0.20;1.00
18268;DHT22;9260;49.998;19.880;2023-01-19T19:27:50;-0.10;1.00
18268;DHT22;9260;49.998;19.880;2023-01-19T19:37:55;-0.20;1.00
18268;DHT22;9260;49.998;19.880;2023-01-19T19:47:59;0.00;1.00
18268;DHT22;9260;49.998;19.880;2023-01-19T19:58:04;-0.20;1.00
18268;DHT22;9260;49.998;19.880;2023-01-19T20:08:10;-0.30;1.00
18268;DHT22;9260;49.998;19.880;2023-01-19T20:18:15;-0.10;1.00
18268;DHT22;9260;49.998;19.880;2023-01-19T20:28:19;0.00;1.00
18268;DHT22;9260;49.998;19.880;2023-01-19T20:38:24;-0.10;1.00
18268;DHT22;9260;49.998;19.880;2023-01-19T20:48:27;-0.40;1.00
18268;DHT22;9260;49.998;19.880;2023-01-19T20:58:33;-0.40;1.00
18268;DHT22;9260;49.998;19.880;2023-01-19T21:08:36;0.00;1.00
18268;DHT22;9260;49.998;19.880;2023-01-19T21:18:42;-0.40;1.00
18268;DHT22;9260;49.998;19.880;2023-01-19T21:28:46;-0.20;1.00
18268;DHT22;9260;49.998;19.880;2023-01-19T21:38:52;-0.10;1.00
18268;DHT22;9260;49.998;19.880;2023-01-19T21:49:03;-0.20;1.00
18268;DHT22;9260;49.998;19.880;2023-01-19T21:59:13;-0.20;1.00
18268;DHT22;9260;49.998;19.880;2023-01-19T22:09:18;-0.20;1.00
18268;DHT22;9260;49.998;19.880;2023-01-19T22:19:23;-0.20;1.00
18268;DHT22;9260;49.998;19.880;2023-01-19T22:29:27;-0.50;1.00
18268;DHT22;9260;49.998;19.880;2023-01-19T22:39:32;-0.50;1.00
18268;DHT22;9260;49.998;19.880;2023-01-19T22:49:36;-0.50;1.00
18268;DHT22;9260;49.998;19.880;2023-01-19T22:59:41;-0.30;1.00
18268;DHT22;9260;49.998;19.880;2023-01-19T23:09:44;-0.40;1.00
18268;DHT22;9260;49.998;19.880;2023-01-19T23:19:49;-0.30;1.00
18268;DHT22;9260;49.998;19.880;2023-01-19T23:29:53;-0.20;1.00
18268;DHT22;9260;49.998;19.880;2023-01-19T23:39:57;-0.30;1.00
18268;DHT22;9260;49.998;19.880;2023-01-19T23:50:02;-0.40;1.00
